Terminal Aerodrome Forecast
Issued by NWS

Home | Current Version | Previous Version | Text Only | Print | Product List | Glossary On
Versions: 1 2 3 4 5 6 7 8 9 10 11 12 13 14 15 16 17 18 19 20 21 22 23 24 25 26 27 28 29 30 31 32 33 34 35 36 37 38
381
FTAK31 PAFA 192013 AAB
TAFAFA
TAF AMD
PAFA 192013Z 1920/2024 00000KT 6SM BR BKN007 BKN013 OVC024
     FM192100 VRB03KT P6SM SCT015 OVC025
     FM201400 25008KT 2SM -SN OVC020
     FM201600 29010KT 1/2SM SN FG OVC007
     FM202100 20011KT P6SM BKN015=

USA.gov is the U.S. government's official web portal to all federal, state and local government web resources and services.